createdAt,value
2022-10-02T00:02:18.392Z,14.46
2022-10-02T00:04:55.321Z,14.48
2022-10-02T00:07:28.431Z,14.49
2022-10-02T00:10:00.732Z,14.51
2022-10-02T00:12:30.107Z,14.51
2022-10-02T00:15:22.171Z,14.49
2022-10-02T00:17:53.520Z,14.52
2022-10-02T00:20:28.055Z,14.51
2022-10-02T00:23:07.363Z,14.51
2022-10-02T00:25:47.415Z,14.52
2022-10-02T00:28:19.950Z,14.52
2022-10-02T00:31:06.632Z,14.50
2022-10-02T00:33:52.494Z,14.51
2022-10-02T00:36:43.902Z,14.48
2022-10-02T00:39:35.128Z,14.48
2022-10-02T00:42:20.264Z,14.49
2022-10-02T00:45:03.262Z,14.47
2022-10-02T00:47:42.516Z,14.44
2022-10-02T00:50:28.631Z,14.42
2022-10-02T00:53:03.807Z,14.39
2022-10-02T00:55:44.688Z,14.35
2022-10-02T00:58:29.020Z,14.29
2022-10-02T01:01:03.486Z,14.21
2022-10-02T01:03:38.035Z,14.19
2022-10-02T01:06:05.192Z,14.14
2022-10-02T01:08:32.473Z,14.11
2022-10-02T01:10:59.699Z,14.09
2022-10-02T01:13:26.540Z,14.05
2022-10-02T01:15:56.176Z,14.01
2022-10-02T01:18:23.044Z,14.00
2022-10-02T01:20:52.403Z,13.98
2022-10-02T01:23:39.831Z,13.93
2022-10-02T01:26:06.553Z,13.91
2022-10-02T01:28:33.440Z,13.92
2022-10-02T01:31:05.063Z,13.91
2022-10-02T01:33:32.523Z,13.92
2022-10-02T01:35:59.369Z,13.91
2022-10-02T01:38:27.216Z,13.91
2022-10-02T01:40:53.782Z,13.92
2022-10-02T01:43:26.482Z,13.91
2022-10-02T01:46:12.148Z,13.91
2022-10-02T01:49:03.898Z,13.93
2022-10-02T01:51:41.204Z,13.95
2022-10-02T01:54:44.870Z,13.95
2022-10-02T01:57:29.380Z,13.96
2022-10-02T02:00:15.955Z,13.98
2022-10-02T02:03:03.843Z,13.99
2022-10-02T02:05:42.156Z,13.91
2022-10-02T02:08:16.297Z,14.00
2022-10-02T02:10:52.505Z,14.02
2022-10-02T02:13:35.818Z,14.03
2022-10-02T02:16:17.819Z,14.05
2022-10-02T02:19:07.548Z,14.04
2022-10-02T02:21:40.077Z,14.07
2022-10-02T02:24:13.874Z,14.08
2022-10-02T02:26:43.716Z,14.11
2022-10-02T02:29:13.090Z,14.13
2022-10-02T02:31:54.180Z,14.11
2022-10-02T02:34:27.250Z,14.13
2022-10-02T02:37:05.059Z,14.13
2022-10-02T02:39:47.212Z,14.12
2022-10-02T02:42:18.145Z,14.14
2022-10-02T02:44:53.459Z,14.14
2022-10-02T02:47:25.947Z,14.13
2022-10-02T02:50:05.305Z,14.11
2022-10-02T02:52:51.884Z,14.09
2022-10-02T02:55:56.184Z,14.07
2022-10-02T02:58:31.369Z,14.09
2022-10-02T03:00:58.080Z,14.10
2022-10-02T03:03:24.765Z,14.11
2022-10-02T03:06:03.856Z,14.09
2022-10-02T03:08:34.737Z,14.10
2022-10-02T03:11:19.038Z,14.10
2022-10-02T03:14:14.563Z,14.08
2022-10-02T03:16:47.792Z,14.12
2022-10-02T03:19:42.334Z,14.13
2022-10-02T03:22:32.275Z,14.14
2022-10-02T03:25:23.618Z,14.15
2022-10-02T03:27:59.194Z,14.18
2022-10-02T03:30:27.361Z,14.20
2022-10-02T03:32:55.779Z,14.22
2022-10-02T03:35:24.485Z,14.21
2022-10-02T03:37:54.952Z,14.21
2022-10-02T03:40:23.100Z,14.23
2022-10-02T03:42:49.632Z,14.16
2022-10-02T03:45:32.804Z,14.25
2022-10-02T03:48:02.682Z,14.28
2022-10-02T03:50:32.825Z,14.30
2022-10-02T03:53:02.276Z,14.30
2022-10-02T03:55:34.088Z,14.31
2022-10-02T03:58:08.842Z,14.31
2022-10-02T04:00:46.742Z,14.31
2022-10-02T04:03:20.599Z,14.31
2022-10-02T04:05:56.312Z,14.30
2022-10-02T04:08:30.512Z,14.32
2022-10-02T04:11:20.769Z,14.29
2022-10-02T04:13:48.610Z,14.31
2022-10-02T04:16:50.440Z,14.28
2022-10-02T04:19:22.388Z,14.29
2022-10-02T04:22:00.658Z,14.30
2022-10-02T04:24:39.095Z,14.29
2022-10-02T04:27:31.249Z,14.27
2022-10-02T04:30:07.919Z,14.30
2022-10-02T04:32:36.312Z,14.31
2022-10-02T04:35:25.499Z,14.29
2022-10-02T04:37:54.812Z,14.29
2022-10-02T04:40:30.223Z,14.30
2022-10-02T04:43:24.997Z,14.30
2022-10-02T04:46:06.734Z,14.30
2022-10-02T04:48:45.275Z,14.32
2022-10-02T04:51:29.703Z,14.33
2022-10-02T04:54:19.252Z,14.32
2022-10-02T04:57:16.289Z,14.30
2022-10-02T04:59:55.899Z,14.32
2022-10-02T05:03:00.681Z,14.34
2022-10-02T05:05:35.752Z,14.34
2022-10-02T05:08:09.703Z,14.36
2022-10-02T05:10:53.173Z,14.37
2022-10-02T05:13:28.774Z,14.38
2022-10-02T05:16:23.557Z,14.39
2022-10-02T05:19:02.255Z,14.40
2022-10-02T05:21:50.365Z,14.41
2022-10-02T05:24:45.048Z,14.42
2022-10-02T05:27:21.948Z,14.44
2022-10-02T05:30:05.647Z,14.46
2022-10-02T05:32:54.500Z,14.45
2022-10-02T05:35:24.136Z,14.48
2022-10-02T05:38:06.219Z,14.50
2022-10-02T05:41:03.264Z,14.49
2022-10-02T05:43:32.719Z,14.49
2022-10-02T05:46:06.280Z,14.52
2022-10-02T05:48:41.597Z,14.53
2022-10-02T05:51:23.197Z,14.54
2022-10-02T05:53:59.319Z,14.54
2022-10-02T05:56:40.879Z,14.57
2022-10-02T05:59:35.672Z,14.58
2022-10-02T06:02:13.425Z,14.60
2022-10-02T06:04:46.184Z,14.62
2022-10-02T06:07:15.609Z,14.63
2022-10-02T06:09:52.877Z,14.65
2022-10-02T06:12:27.832Z,14.67
2022-10-02T06:15:01.586Z,14.69
2022-10-02T06:17:41.386Z,14.69
2022-10-02T06:20:30.042Z,14.71
2022-10-02T06:23:13.261Z,14.73
2022-10-02T06:26:00.540Z,14.74
2022-10-02T06:28:42.888Z,14.73
2022-10-02T06:31:17.481Z,14.74
2022-10-02T06:33:44.658Z,14.77
2022-10-02T06:36:16.978Z,14.76
2022-10-02T06:38:48.929Z,14.77
2022-10-02T06:41:21.165Z,14.76
2022-10-02T06:44:08.430Z,14.75
2022-10-02T06:46:55.125Z,14.71
2022-10-02T06:49:28.681Z,14.73
2022-10-02T06:52:10.380Z,14.71
2022-10-02T06:55:14.081Z,14.70
2022-10-02T06:57:49.736Z,14.68
2022-10-02T07:00:19.092Z,14.69
2022-10-02T07:03:03.815Z,14.68
2022-10-02T07:05:52.235Z,14.66
2022-10-02T07:08:56.255Z,14.67
2022-10-02T07:11:36.574Z,14.66
2022-10-02T07:14:27.365Z,14.67
2022-10-02T07:17:31.195Z,14.67
2022-10-02T07:20:32.599Z,14.66
2022-10-02T07:23:23.874Z,14.67
2022-10-02T07:26:24.120Z,14.68
2022-10-02T07:28:57.558Z,14.72
2022-10-02T07:31:53.503Z,14.71
2022-10-02T07:34:43.978Z,14.72
2022-10-02T07:37:44.314Z,14.75
2022-10-02T07:40:34.137Z,14.78
2022-10-02T07:43:14.497Z,14.81
2022-10-02T07:45:45.253Z,14.86
2022-10-02T07:48:25.586Z,14.87
2022-10-02T07:51:11.359Z,14.88
2022-10-02T07:54:03.473Z,14.95
2022-10-02T07:56:30.910Z,14.96
2022-10-02T07:59:03.938Z,14.99
2022-10-02T08:01:33.801Z,15.01
2022-10-02T08:04:09.543Z,15.05
2022-10-02T08:06:36.972Z,15.08
2022-10-02T08:09:16.354Z,15.09
2022-10-02T08:11:56.075Z,15.13
2022-10-02T08:14:45.370Z,15.18
2022-10-02T08:17:58.807Z,15.23
2022-10-02T08:20:41.166Z,15.28
2022-10-02T08:23:18.443Z,15.33
2022-10-02T08:26:01.760Z,15.37
2022-10-02T08:28:37.748Z,15.42
2022-10-02T08:31:10.284Z,15.47
2022-10-02T08:33:36.816Z,15.51
2022-10-02T08:36:35.055Z,15.54
2022-10-02T08:39:16.590Z,15.57
2022-10-02T08:41:59.986Z,15.62
2022-10-02T08:44:36.165Z,15.68
2022-10-02T08:47:12.352Z,15.71
2022-10-02T08:50:16.119Z,15.73
2022-10-02T08:52:58.486Z,15.78
2022-10-02T08:55:40.115Z,15.83
2022-10-02T08:58:25.280Z,15.87
2022-10-02T09:01:36.794Z,15.90
2022-10-02T09:04:15.650Z,15.98
2022-10-02T09:06:57.410Z,16.04
2022-10-02T09:10:01.187Z,16.06
2022-10-02T09:12:44.969Z,16.11
2022-10-02T09:15:41.312Z,16.14
2022-10-02T09:18:22.074Z,16.19
2022-10-02T09:21:36.455Z,16.20
2022-10-02T09:24:21.477Z,16.24
2022-10-02T09:27:27.683Z,16.24
2022-10-02T09:30:02.891Z,16.29
2022-10-02T09:32:47.360Z,16.32
2022-10-02T09:35:31.828Z,16.33
2022-10-02T09:38:21.609Z,16.35
2022-10-02T09:40:50.935Z,16.37
2022-10-02T09:43:46.600Z,16.40
2022-10-02T09:46:31.780Z,16.43
2022-10-02T09:49:32.222Z,16.45
2022-10-02T09:52:39.339Z,16.49
2022-10-02T09:55:49.645Z,16.56
2022-10-02T09:58:34.732Z,16.63
2022-10-02T10:01:22.126Z,16.70
2022-10-02T10:04:13.546Z,16.75
2022-10-02T10:07:22.982Z,16.80
2022-10-02T10:09:59.830Z,16.84
2022-10-02T10:13:03.559Z,16.88
2022-10-02T10:15:51.473Z,16.94
2022-10-02T10:19:00.072Z,17.02
2022-10-02T10:22:04.443Z,17.08
2022-10-02T10:25:00.883Z,17.15
2022-10-02T10:27:49.229Z,17.22
2022-10-02T10:30:34.345Z,17.30
2022-10-02T10:33:19.264Z,17.36
2022-10-02T10:36:11.874Z,17.46
2022-10-02T10:38:55.106Z,17.55
2022-10-02T10:41:47.745Z,17.66
2022-10-02T10:44:38.649Z,17.77
2022-10-02T10:47:45.628Z,17.87
2022-10-02T10:50:18.080Z,17.99
2022-10-02T10:52:59.640Z,18.09
2022-10-02T10:55:54.278Z,18.18
2022-10-02T10:58:42.989Z,18.26
2022-10-02T11:01:18.711Z,18.34
2022-10-02T11:04:07.307Z,18.38
2022-10-02T11:07:10.944Z,18.46
2022-10-02T11:09:59.563Z,18.55
2022-10-02T11:12:33.292Z,18.68
2022-10-02T11:15:16.614Z,18.79
2022-10-02T11:18:20.236Z,18.91
2022-10-02T11:20:52.165Z,19.05
2022-10-02T11:23:44.734Z,19.15
2022-10-02T11:26:20.237Z,19.28
2022-10-02T11:29:10.831Z,19.34
2022-10-02T11:32:18.683Z,19.42
2022-10-02T11:34:50.753Z,19.49
2022-10-02T11:37:29.757Z,19.54
2022-10-02T11:40:30.778Z,19.54
2022-10-02T11:43:17.719Z,19.58
2022-10-02T11:46:10.626Z,19.66
2022-10-02T11:48:55.455Z,19.77
2022-10-02T11:51:55.495Z,19.87
2022-10-02T11:54:44.227Z,20.00
2022-10-02T11:57:39.673Z,20.09
2022-10-02T12:00:14.789Z,20.20
2022-10-02T12:02:41.310Z,20.29
2022-10-02T12:05:19.698Z,20.37
2022-10-02T12:08:03.352Z,20.45
2022-10-02T12:10:52.897Z,20.53
2022-10-02T12:13:57.965Z,20.55
2022-10-02T12:16:42.849Z,20.58
2022-10-02T12:19:24.421Z,20.62
2022-10-02T12:21:55.856Z,20.63
2022-10-02T12:24:41.691Z,20.63
2022-10-02T12:27:15.398Z,20.65
2022-10-02T12:30:06.817Z,20.63
2022-10-02T12:33:12.755Z,20.64
2022-10-02T12:36:03.778Z,20.60
2022-10-02T12:38:52.997Z,20.65
2022-10-02T12:41:51.341Z,20.57
2022-10-02T12:44:41.531Z,20.63
2022-10-02T12:47:16.733Z,20.73
2022-10-02T12:49:53.000Z,20.79
2022-10-02T12:52:50.058Z,20.81
2022-10-02T12:55:37.859Z,20.82
2022-10-02T12:58:09.338Z,20.72
2022-10-02T13:01:00.399Z,20.88
2022-10-02T13:03:48.072Z,20.94
2022-10-02T13:06:39.076Z,20.91
2022-10-02T13:09:30.319Z,20.87
2022-10-02T13:12:10.051Z,20.90
2022-10-02T13:14:48.515Z,20.91
2022-10-02T13:17:33.376Z,20.94
2022-10-02T13:20:33.541Z,20.94
2022-10-02T13:23:06.341Z,20.97
2022-10-02T13:25:54.711Z,20.95
2022-10-02T13:28:33.445Z,20.91
2022-10-02T13:31:09.213Z,20.89
2022-10-02T13:33:59.158Z,20.90
2022-10-02T13:37:13.393Z,20.86
2022-10-02T13:39:54.573Z,20.65
2022-10-02T13:42:49.186Z,20.37
2022-10-02T13:45:28.939Z,19.98
2022-10-02T13:48:20.236Z,19.55
2022-10-02T13:51:02.565Z,19.11
2022-10-02T13:53:50.207Z,18.73
2022-10-02T13:56:25.646Z,18.42
2022-10-02T13:59:10.206Z,18.14
2022-10-02T14:02:00.779Z,17.83
2022-10-02T14:04:53.901Z,17.53
2022-10-02T14:07:47.028Z,17.29
2022-10-02T14:10:40.838Z,17.01
2022-10-02T14:13:20.217Z,16.88
2022-10-02T14:16:09.867Z,16.71
2022-10-02T14:18:45.112Z,16.60
2022-10-02T14:21:26.155Z,16.49
2022-10-02T14:23:58.527Z,16.36
2022-10-02T14:26:49.543Z,16.29
2022-10-02T14:29:31.773Z,16.19
2022-10-02T14:32:01.199Z,16.14
2022-10-02T14:35:03.259Z,16.07
2022-10-02T14:37:48.065Z,16.02
2022-10-02T14:40:17.563Z,15.99
2022-10-02T14:42:55.774Z,15.99
2022-10-02T14:45:43.628Z,16.01
2022-10-02T14:48:10.021Z,15.89
2022-10-02T14:50:58.375Z,15.95
2022-10-02T14:53:59.316Z,15.92
2022-10-02T14:57:02.067Z,15.86
2022-10-02T14:59:46.796Z,15.82
2022-10-02T15:02:33.473Z,15.77
2022-10-02T15:05:26.910Z,15.75
2022-10-02T15:07:53.859Z,15.73
2022-10-02T15:10:26.950Z,15.73
2022-10-02T15:13:22.598Z,15.74
2022-10-02T15:16:33.179Z,15.82
2022-10-02T15:19:14.512Z,15.83
2022-10-02T15:21:48.348Z,15.86
2022-10-02T15:25:08.616Z,15.84
2022-10-02T15:28:35.404Z,15.79
2022-10-02T15:31:18.070Z,15.76
2022-10-02T15:34:16.074Z,15.72
2022-10-02T15:36:48.248Z,15.71
2022-10-02T15:39:23.242Z,15.69
2022-10-02T15:42:09.831Z,15.66
2022-10-02T15:45:20.668Z,15.65
2022-10-02T15:47:59.334Z,15.63
2022-10-02T15:50:50.074Z,15.61
2022-10-02T15:53:45.687Z,15.58
2022-10-02T15:56:31.162Z,15.56
2022-10-02T15:59:16.543Z,15.57
2022-10-02T16:02:07.579Z,15.55
2022-10-02T16:04:55.928Z,15.54
2022-10-02T16:07:37.454Z,15.53
2022-10-02T16:10:06.673Z,15.55
2022-10-02T16:12:38.803Z,15.57
2022-10-02T16:15:17.279Z,15.54
2022-10-02T16:17:59.549Z,15.54
2022-10-02T16:20:42.673Z,15.52
2022-10-02T16:23:32.540Z,15.50
2022-10-02T16:26:28.699Z,15.48
2022-10-02T16:28:58.395Z,15.46
2022-10-02T16:31:46.307Z,15.44
2022-10-02T16:34:31.471Z,15.38
2022-10-02T16:37:27.716Z,15.33
2022-10-02T16:40:17.921Z,15.33
2022-10-02T16:42:53.107Z,15.30
2022-10-02T16:45:41.010Z,15.28
2022-10-02T16:48:07.362Z,15.18
2022-10-02T16:51:04.245Z,15.25
2022-10-02T16:53:54.468Z,15.24
2022-10-02T16:56:32.173Z,15.27
2022-10-02T16:59:04.644Z,15.17
2022-10-02T17:01:59.510Z,15.23
2022-10-02T17:04:55.365Z,15.23
2022-10-02T17:07:36.080Z,15.23
2022-10-02T17:10:39.897Z,15.20
2022-10-02T17:13:09.287Z,15.19
2022-10-02T17:15:52.087Z,15.20
2022-10-02T17:18:42.377Z,15.18
2022-10-02T17:21:15.396Z,15.19
2022-10-02T17:23:58.135Z,15.19
2022-10-02T17:26:32.803Z,15.19
2022-10-02T17:29:11.354Z,15.19
2022-10-02T17:31:50.486Z,15.21
2022-10-02T17:34:44.477Z,15.21
2022-10-02T17:37:13.990Z,15.21
2022-10-02T17:40:02.142Z,15.23
2022-10-02T17:42:40.652Z,15.23
2022-10-02T17:45:31.842Z,15.23
2022-10-02T17:48:07.047Z,15.20
2022-10-02T17:50:42.549Z,15.23
2022-10-02T17:53:50.913Z,15.20
2022-10-02T17:56:53.112Z,15.18
2022-10-02T17:59:28.464Z,15.17
2022-10-02T18:02:12.463Z,15.16
2022-10-02T18:05:17.747Z,15.12
2022-10-02T18:08:30.370Z,15.11
2022-10-02T18:11:06.599Z,15.10
2022-10-02T18:13:59.741Z,15.07
2022-10-02T18:16:37.502Z,15.04
2022-10-02T18:19:26.808Z,15.02
2022-10-02T18:21:53.258Z,15.02
2022-10-02T18:24:50.809Z,15.01
2022-10-02T18:27:34.337Z,14.98
2022-10-02T18:30:13.614Z,14.97
2022-10-02T18:33:01.199Z,14.97
2022-10-02T18:35:43.036Z,14.95
2022-10-02T18:38:24.569Z,14.95
2022-10-02T18:41:12.874Z,14.94
2022-10-02T18:43:45.192Z,14.94
2022-10-02T18:46:23.518Z,14.93
2022-10-02T18:49:00.597Z,14.91
2022-10-02T18:51:36.006Z,14.87
2022-10-02T18:54:05.448Z,14.86
2022-10-02T18:56:46.352Z,14.84
2022-10-02T18:59:15.819Z,14.81
2022-10-02T19:01:54.291Z,14.81
2022-10-02T19:04:48.583Z,14.80
2022-10-02T19:07:23.984Z,14.78
2022-10-02T19:10:09.117Z,14.78
2022-10-02T19:12:35.941Z,14.78
2022-10-02T19:15:19.843Z,14.76
2022-10-02T19:17:58.260Z,14.74
2022-10-02T19:20:42.029Z,14.73
2022-10-02T19:23:15.596Z,14.73
2022-10-02T19:25:50.579Z,14.71
2022-10-02T19:28:22.029Z,14.69
2022-10-02T19:30:53.151Z,14.68
2022-10-02T19:33:42.765Z,14.66
2022-10-02T19:36:16.700Z,14.65
2022-10-02T19:38:51.699Z,14.63
2022-10-02T19:41:19.406Z,14.63
2022-10-02T19:43:57.822Z,14.59
2022-10-02T19:46:32.595Z,14.59
2022-10-02T19:49:00.215Z,14.59
2022-10-02T19:51:26.751Z,14.57
2022-10-02T19:53:55.814Z,14.57
2022-10-02T19:56:32.973Z,14.55
2022-10-02T19:59:05.504Z,14.55
2022-10-02T20:01:42.487Z,14.54
2022-10-02T20:04:19.094Z,14.54
2022-10-02T20:06:50.450Z,14.51
2022-10-02T20:09:19.669Z,14.51
2022-10-02T20:12:11.645Z,14.50
2022-10-02T20:14:50.525Z,14.47
2022-10-02T20:17:17.318Z,14.47
2022-10-02T20:19:49.124Z,14.46
2022-10-02T20:22:37.794Z,14.42
2022-10-02T20:25:16.138Z,14.42
2022-10-02T20:27:54.382Z,14.39
2022-10-02T20:30:23.787Z,14.39
2022-10-02T20:33:13.653Z,14.37
2022-10-02T20:35:44.433Z,14.37
2022-10-02T20:38:21.924Z,14.37
2022-10-02T20:40:52.222Z,14.36
2022-10-02T20:43:32.083Z,14.36
2022-10-02T20:45:59.526Z,14.36
2022-10-02T20:49:06.831Z,14.33
2022-10-02T20:51:57.491Z,14.30
2022-10-02T20:54:45.311Z,14.28
2022-10-02T20:57:17.677Z,14.18
2022-10-02T21:00:04.618Z,14.19
2022-10-02T21:03:05.297Z,14.13
2022-10-02T21:06:04.002Z,14.09
2022-10-02T21:08:42.720Z,14.06
2022-10-02T21:11:33.772Z,14.03
2022-10-02T21:14:32.618Z,13.98
2022-10-02T21:17:34.097Z,13.94
2022-10-02T21:20:22.748Z,13.91
2022-10-02T21:23:06.494Z,13.89
2022-10-02T21:26:02.204Z,13.89
2022-10-02T21:28:37.183Z,13.87
2022-10-02T21:31:24.101Z,13.84
2022-10-02T21:34:19.015Z,13.84
2022-10-02T21:37:03.594Z,13.81
2022-10-02T21:39:55.817Z,13.83
2022-10-02T21:42:55.988Z,13.79
2022-10-02T21:45:52.904Z,13.77
2022-10-02T21:48:52.166Z,13.74
2022-10-02T21:51:51.066Z,13.76
2022-10-02T21:54:46.334Z,13.77
2022-10-02T21:57:50.983Z,13.75
2022-10-02T22:00:26.840Z,13.77
2022-10-02T22:03:31.601Z,13.77
2022-10-02T22:06:32.727Z,13.77
2022-10-02T22:09:05.529Z,13.77
2022-10-02T22:11:53.075Z,13.78
2022-10-02T22:14:29.191Z,13.78
2022-10-02T22:17:17.136Z,13.80
2022-10-02T22:20:01.573Z,13.72
2022-10-02T22:22:46.435Z,13.82
2022-10-02T22:25:46.357Z,13.80
2022-10-02T22:28:25.314Z,13.82
2022-10-02T22:30:54.845Z,13.82
2022-10-02T22:33:33.250Z,13.82
2022-10-02T22:36:11.741Z,13.81
2022-10-02T22:38:44.600Z,13.80
2022-10-02T22:41:29.279Z,13.82
2022-10-02T22:44:01.166Z,13.82
2022-10-02T22:46:41.098Z,13.83
2022-10-02T22:49:29.193Z,13.82
2022-10-02T22:51:59.888Z,13.84
2022-10-02T22:54:42.160Z,13.84
2022-10-02T22:57:21.797Z,13.84
2022-10-02T22:59:55.169Z,13.83
2022-10-02T23:02:50.870Z,13.84
2022-10-02T23:05:27.733Z,13.83
2022-10-02T23:08:04.964Z,13.84
2022-10-02T23:10:47.224Z,13.82
2022-10-02T23:13:23.765Z,13.82
2022-10-02T23:16:06.493Z,13.83
2022-10-02T23:18:36.666Z,13.83
2022-10-02T23:21:17.351Z,13.82
2022-10-02T23:23:43.756Z,13.82
2022-10-02T23:26:46.368Z,13.81
2022-10-02T23:29:31.076Z,13.81
2022-10-02T23:32:08.815Z,13.82
2022-10-02T23:35:04.731Z,13.79
2022-10-02T23:37:55.288Z,13.80
2022-10-02T23:40:25.448Z,13.78
2022-10-02T23:43:02.633Z,13.76
2022-10-02T23:45:55.143Z,13.74
2022-10-02T23:48:21.954Z,13.72
2022-10-02T23:51:06.964Z,13.71
2022-10-02T23:53:48.787Z,13.71
2022-10-02T23:56:47.751Z,13.69
